Time;durP1;ratioP1;P1;durP2;ratioP2;P2;SDS_P1;SDS_P2;PMS_P1;PMS_P2;Temp;Humidity;BMP_temperature;BMP_pressure;BME280_temperature;BME280_humidity;BME280_pressure;Samples;Min_cycle;Max_cycle;Signal;HPM_P1;HPM_P2
2022/10/23 00:01:23;;;;;;;4.27;3.13;;;;;;;;;;4975749;28;20440;-55
2022/10/23 00:03:59;;;;;;;2.40;2.20;;;;;;;;;;4979501;28;20448;-55
2022/10/23 00:06:25;;;;;;;2.50;2.20;;;;;;;;;;4982469;28;20559;-55
2022/10/23 00:08:51;;;;;;;3.60;2.57;;;;;;;;;;4938919;28;20947;-57
2022/10/23 00:11:18;;;;;;;6.77;2.90;;;;;;;;;;4984464;28;20953;-55
2022/10/23 00:13:44;;;;;;;5.30;2.80;;;;;;;;;;4957183;28;20445;-57
2022/10/23 00:16:10;;;;;;;3.30;2.47;;;;;;;;;;4974784;28;20444;-56
2022/10/23 00:18:37;;;;;;;6.80;3.10;;;;;;;;;;4956809;28;20958;-56
2022/10/23 00:21:03;;;;;;;9.43;2.33;;;;;;;;;;4976510;28;20448;-55
2022/10/23 00:23:29;;;;;;;6.27;2.40;;;;;;;;;;4956809;28;20466;-56
2022/10/23 00:25:55;;;;;;;5.00;3.17;;;;;;;;;;4973403;28;21056;-56
2022/10/23 00:28:21;;;;;;;8.73;2.83;;;;;;;;;;4969008;28;20464;-56
2022/10/23 00:30:47;;;;;;;5.40;2.73;;;;;;;;;;4979305;28;20433;-56
2022/10/23 00:33:13;;;;;;;16.60;5.30;;;;;;;;;;4954911;28;20887;-56
2022/10/23 00:35:39;;;;;;;3.97;3.23;;;;;;;;;;4966852;28;20434;-56
2022/10/23 00:38:05;;;;;;;2.80;2.47;;;;;;;;;;4948508;28;20512;-56
2022/10/23 00:40:31;;;;;;;4.60;2.60;;;;;;;;;;4974466;28;20490;-56
2022/10/23 00:42:57;;;;;;;4.03;2.67;;;;;;;;;;4932027;28;25254;-56
2022/10/23 00:45:27;;;;;;;6.07;3.00;;;;;;;;;;4960293;28;20441;-54
2022/10/23 00:47:53;;;;;;;10.67;2.90;;;;;;;;;;4968180;28;20492;-61
2022/10/23 00:50:20;;;;;;;11.60;2.80;;;;;;;;;;5006982;28;20449;-55
2022/10/23 00:52:47;;;;;;;5.37;3.00;;;;;;;;;;4951802;28;20441;-56
2022/10/23 00:55:13;;;;;;;12.80;2.83;;;;;;;;;;5001442;28;20471;-59
2022/10/23 00:57:40;;;;;;;5.80;2.90;;;;;;;;;;4972578;28;20445;-57
2022/10/23 01:00:07;;;;;;;4.03;3.03;;;;;;;;;;4975542;28;20445;-55
2022/10/23 01:02:33;;;;;;;6.43;2.23;;;;;;;;;;4954986;28;21111;-57
2022/10/23 01:04:58;;;;;;;4.10;2.70;;;;;;;;;;4971230;28;20946;-55
2022/10/23 01:07:51;;;;;;;7.30;3.20;;;;;;;;;;4958728;28;20465;-56
2022/10/23 01:10:37;;;;;;;5.60;2.37;;;;;;;;;;4974158;28;20453;-57
2022/10/23 01:13:05;;;;;;;8.83;2.33;;;;;;;;;;4946045;28;20481;-56
2022/10/23 01:15:35;;;;;;;6.53;2.10;;;;;;;;;;4972292;28;20870;-56
2022/10/23 01:18:11;;;;;;;6.03;2.27;;;;;;;;;;4951217;28;20896;-57
2022/10/23 01:20:37;;;;;;;3.07;2.13;;;;;;;;;;4974936;28;22350;-56
2022/10/23 01:23:19;;;;;;;7.73;2.40;;;;;;;;;;4948983;28;20845;-56
2022/10/23 01:26:03;;;;;;;5.07;1.93;;;;;;;;;;4974171;28;20544;-56
2022/10/23 01:28:29;;;;;;;4.27;2.57;;;;;;;;;;4987192;28;21002;-56
2022/10/23 01:30:56;;;;;;;3.50;2.30;;;;;;;;;;4977102;28;20446;-56
2022/10/23 01:33:26;;;;;;;6.37;3.50;;;;;;;;;;4951400;28;20478;-56
2022/10/23 01:35:52;;;;;;;12.20;2.30;;;;;;;;;;5005933;28;20496;-56
2022/10/23 01:38:18;;;;;;;3.80;2.20;;;;;;;;;;4977236;28;20569;-56
2022/10/23 01:40:47;;;;;;;3.23;2.10;;;;;;;;;;4977147;28;20535;-55
2022/10/23 01:43:18;;;;;;;2.63;2.33;;;;;;;;;;4936126;28;20478;-56
2022/10/23 01:45:45;;;;;;;3.93;2.20;;;;;;;;;;5004933;28;20862;-55
2022/10/23 01:48:15;;;;;;;4.90;3.00;;;;;;;;;;4981814;28;20774;-56
2022/10/23 01:50:41;;;;;;;17.73;2.77;;;;;;;;;;4974676;28;20520;-56
2022/10/23 01:53:07;;;;;;;3.13;2.37;;;;;;;;;;4953545;28;20434;-56
2022/10/23 01:55:33;;;;;;;3.13;2.30;;;;;;;;;;4975957;28;20468;-56
2022/10/23 01:57:59;;;;;;;5.17;3.30;;;;;;;;;;4949222;28;21056;-56
2022/10/23 02:00:25;;;;;;;5.10;2.63;;;;;;;;;;4976551;28;20826;-57
2022/10/23 02:02:51;;;;;;;4.47;2.37;;;;;;;;;;4972580;28;20528;-55
2022/10/23 02:05:18;;;;;;;2.60;1.90;;;;;;;;;;4969765;28;20445;-56
2022/10/23 02:07:44;;;;;;;2.93;2.43;;;;;;;;;;5009423;28;20480;-57
2022/10/23 02:10:10;;;;;;;4.53;3.07;;;;;;;;;;4971696;28;20441;-54
2022/10/23 02:12:45;;;;;;;10.03;3.53;;;;;;;;;;4968903;28;20500;-57
2022/10/23 02:15:13;;;;;;;4.10;2.40;;;;;;;;;;4925360;28;20551;-56
2022/10/23 02:17:47;;;;;;;4.60;2.90;;;;;;;;;;4996046;28;20444;-56
2022/10/23 02:20:21;;;;;;;5.20;2.27;;;;;;;;;;4970346;28;23449;-56
2022/10/23 02:22:58;;;;;;;5.13;3.10;;;;;;;;;;4976874;28;20507;-54
2022/10/23 02:25:30;;;;;;;4.63;2.30;;;;;;;;;;4974254;28;20485;-56
2022/10/23 02:27:56;;;;;;;3.50;2.47;;;;;;;;;;4976540;28;20537;-57
2022/10/23 02:30:22;;;;;;;6.67;2.80;;;;;;;;;;4952506;28;20437;-56
2022/10/23 02:32:49;;;;;;;3.57;2.53;;;;;;;;;;4970285;28;21027;-57
2022/10/23 02:35:15;;;;;;;3.93;2.80;;;;;;;;;;4942626;28;20481;-56
2022/10/23 02:37:41;;;;;;;8.67;3.20;;;;;;;;;;5001871;28;20437;-56
2022/10/23 02:40:07;;;;;;;4.80;2.47;;;;;;;;;;4943205;28;21172;-56
2022/10/23 02:42:34;;;;;;;3.60;2.60;;;;;;;;;;4971971;28;20506;-56
2022/10/23 02:45:06;;;;;;;12.13;2.97;;;;;;;;;;4959263;28;20449;-56
2022/10/23 02:47:32;;;;;;;4.07;1.90;;;;;;;;;;4979347;28;20492;-56
2022/10/23 02:50:01;;;;;;;4.40;2.33;;;;;;;;;;4956856;28;20441;-55
2022/10/23 02:52:33;;;;;;;7.00;4.60;;;;;;;;;;4978941;28;20185;-56
2022/10/23 02:55:32;;;;;;;4.40;2.23;;;;;;;;;;4954152;28;20821;-54
2022/10/23 02:58:09;;;;;;;4.00;2.17;;;;;;;;;;4983269;28;20482;-56
2022/10/23 03:00:35;;;;;;;3.00;2.13;;;;;;;;;;4972747;28;20496;-56
2022/10/23 03:03:02;;;;;;;2.83;2.07;;;;;;;;;;4973216;28;22300;-57
2022/10/23 03:05:30;;;;;;;2.60;2.17;;;;;;;;;;4961543;28;20472;-56
2022/10/23 03:07:56;;;;;;;12.80;2.80;;;;;;;;;;5003317;28;20445;-56
2022/10/23 03:10:22;;;;;;;5.37;2.20;;;;;;;;;;4946655;28;21443;-56
2022/10/23 03:12:48;;;;;;;5.33;2.70;;;;;;;;;;4969770;28;20441;-56
2022/10/23 03:15:14;;;;;;;6.23;2.40;;;;;;;;;;4951905;28;20463;-56
2022/10/23 03:17:40;;;;;;;5.10;2.40;;;;;;;;;;4974084;28;20726;-56
2022/10/23 03:20:07;;;;;;;2.83;1.80;;;;;;;;;;4916590;28;21088;-55
2022/10/23 03:22:32;;;;;;;3.10;2.40;;;;;;;;;;4971325;28;20425;-54
2022/10/23 03:24:59;;;;;;;6.63;4.70;;;;;;;;;;4948515;28;23132;-56
2022/10/23 03:27:24;;;;;;;2.37;2.17;;;;;;;;;;4977718;28;20481;-57
2022/10/23 03:29:50;;;;;;;5.67;3.10;;;;;;;;;;4950675;28;20532;-55
2022/10/23 03:32:16;;;;;;;5.43;2.40;;;;;;;;;;4972135;28;20856;-55
2022/10/23 03:34:42;;;;;;;3.50;1.90;;;;;;;;;;4941301;28;20534;-56
2022/10/23 03:37:08;;;;;;;2.87;2.00;;;;;;;;;;4967018;28;20442;-56
2022/10/23 03:39:34;;;;;;;4.37;2.23;;;;;;;;;;4978526;28;20449;-56
2022/10/23 03:42:00;;;;;;;3.60;2.20;;;;;;;;;;4978915;28;20484;-56
2022/10/23 03:44:26;;;;;;;4.00;2.30;;;;;;;;;;4978253;28;20499;-55
2022/10/23 03:46:52;;;;;;;3.40;1.67;;;;;;;;;;4958320;28;20571;-56
2022/10/23 03:49:18;;;;;;;4.37;2.80;;;;;;;;;;4962153;28;20532;-56
2022/10/23 03:52:11;;;;;;;5.37;2.73;;;;;;;;;;4972227;28;20581;-57
2022/10/23 03:54:37;;;;;;;3.63;1.90;;;;;;;;;;4969502;28;20491;-57
2022/10/23 03:57:03;;;;;;;5.47;3.50;;;;;;;;;;4974536;28;20464;-55
2022/10/23 03:59:29;;;;;;;3.90;2.70;;;;;;;;;;4951004;28;21048;-57
2022/10/23 04:01:55;;;;;;;4.70;1.80;;;;;;;;;;4963246;28;20494;-56
2022/10/23 04:04:21;;;;;;;4.73;2.20;;;;;;;;;;4950528;28;20537;-57
2022/10/23 04:06:47;;;;;;;4.03;2.10;;;;;;;;;;4972255;28;20530;-55
2022/10/23 04:09:13;;;;;;;4.80;1.90;;;;;;;;;;4938687;28;20863;-56
2022/10/23 04:11:39;;;;;;;2.87;1.90;;;;;;;;;;4966433;28;20444;-55
2022/10/23 04:14:05;;;;;;;4.07;2.33;;;;;;;;;;4971029;28;20492;-56
2022/10/23 04:16:31;;;;;;;3.00;1.80;;;;;;;;;;4977139;28;20429;-56
2022/10/23 04:18:57;;;;;;;5.60;2.00;;;;;;;;;;4956888;28;21013;-56
2022/10/23 04:21:23;;;;;;;4.10;2.00;;;;;;;;;;4977867;28;20431;-55
2022/10/23 04:23:49;;;;;;;3.97;1.80;;;;;;;;;;4936879;28;20445;-55
2022/10/23 04:26:15;;;;;;;6.63;2.40;;;;;;;;;;4974285;28;20473;-57
2022/10/23 04:28:41;;;;;;;2.93;2.03;;;;;;;;;;4953268;28;20489;-55
2022/10/23 04:31:07;;;;;;;4.40;2.17;;;;;;;;;;4975765;28;20951;-56
2022/10/23 04:33:33;;;;;;;2.73;1.90;;;;;;;;;;4947392;28;20448;-56
2022/10/23 04:35:58;;;;;;;6.70;1.63;;;;;;;;;;4974783;28;20609;-55
2022/10/23 04:38:25;;;;;;;1.90;1.57;;;;;;;;;;4947895;28;20464;-57
2022/10/23 04:40:51;;;;;;;4.97;1.90;;;;;;;;;;4981079;28;20440;-56
2022/10/23 04:43:17;;;;;;;3.60;1.90;;;;;;;;;;4979694;28;20476;-56
2022/10/23 04:45:43;;;;;;;2.87;1.90;;;;;;;;;;4978294;28;20440;-55
2022/10/23 04:48:09;;;;;;;2.77;1.97;;;;;;;;;;4954330;28;20488;-56
2022/10/23 04:50:35;;;;;;;3.37;2.00;;;;;;;;;;4971648;28;20565;-55
2022/10/23 04:53:01;;;;;;;4.63;2.20;;;;;;;;;;4935616;28;20437;-56
2022/10/23 04:55:27;;;;;;;3.40;2.33;;;;;;;;;;4965023;28;20463;-55
2022/10/23 04:57:53;;;;;;;2.50;1.50;;;;;;;;;;4964367;28;20460;-56
2022/10/23 05:00:19;;;;;;;5.40;2.10;;;;;;;;;;4941416;28;20469;-56
2022/10/23 05:02:45;;;;;;;7.90;3.30;;;;;;;;;;4965193;28;20445;-56
2022/10/23 05:05:10;;;;;;;5.80;2.10;;;;;;;;;;4951192;28;20454;-56
2022/10/23 05:07:38;;;;;;;3.03;2.13;;;;;;;;;;4981050;28;20477;-56
2022/10/23 05:10:04;;;;;;;4.20;2.33;;;;;;;;;;4955832;28;20445;-56
2022/10/23 05:12:30;;;;;;;3.43;2.07;;;;;;;;;;4948921;28;20567;-54
2022/10/23 05:14:56;;;;;;;8.23;2.43;;;;;;;;;;4975184;28;20449;-55
2022/10/23 05:17:32;;;;;;;6.30;2.50;;;;;;;;;;4956709;28;20448;-57
2022/10/23 05:19:58;;;;;;;3.17;2.13;;;;;;;;;;4978030;28;20502;-54
2022/10/23 05:22:25;;;;;;;2.57;1.90;;;;;;;;;;5006243;28;20437;-57
2022/10/23 05:24:51;;;;;;;5.00;3.07;;;;;;;;;;5010500;28;20536;-55
2022/10/23 05:27:29;;;;;;;2.67;2.00;;;;;;;;;;4941699;28;21149;-56
2022/10/23 05:29:55;;;;;;;4.93;2.23;;;;;;;;;;4966729;28;21030;-55
2022/10/23 05:32:21;;;;;;;4.90;2.37;;;;;;;;;;4950769;28;20544;-57
2022/10/23 05:34:47;;;;;;;5.23;2.37;;;;;;;;;;4982038;28;20463;-58
2022/10/23 05:37:14;;;;;;;6.23;2.87;;;;;;;;;;4964073;28;20823;-57
2022/10/23 05:39:39;;;;;;;2.27;1.90;;;;;;;;;;5002592;28;20441;-57
2022/10/23 05:42:06;;;;;;;5.10;2.53;;;;;;;;;;4958708;28;20468;-57
2022/10/23 05:44:32;;;;;;;4.07;2.17;;;;;;;;;;4961945;28;21005;-56
2022/10/23 05:46:58;;;;;;;6.60;2.47;;;;;;;;;;4971462;28;20492;-56
2022/10/23 05:49:24;;;;;;;2.60;2.10;;;;;;;;;;4967339;28;20441;-57
2022/10/23 05:51:50;;;;;;;7.10;2.50;;;;;;;;;;4954336;28;20447;-55
2022/10/23 05:54:16;;;;;;;6.93;2.63;;;;;;;;;;4983229;28;20446;-56
2022/10/23 05:56:42;;;;;;;3.90;2.90;;;;;;;;;;4954360;28;20456;-57
2022/10/23 05:59:08;;;;;;;5.97;2.40;;;;;;;;;;4976317;28;20833;-57
2022/10/23 06:01:34;;;;;;;4.30;2.70;;;;;;;;;;4949295;28;20444;-55
2022/10/23 06:04:01;;;;;;;4.00;2.73;;;;;;;;;;4979613;28;20437;-57
2022/10/23 06:06:27;;;;;;;3.00;2.70;;;;;;;;;;4972011;28;20461;-56
2022/10/23 06:08:52;;;;;;;6.40;2.87;;;;;;;;;;4986829;28;20969;-57
2022/10/23 06:11:18;;;;;;;3.43;2.57;;;;;;;;;;4966664;28;20448;-57
2022/10/23 06:13:45;;;;;;;4.17;2.53;;;;;;;;;;4986379;28;20421;-57
2022/10/23 06:16:15;;;;;;;4.00;3.20;;;;;;;;;;4958474;28;20446;-57
2022/10/23 06:18:41;;;;;;;5.90;2.23;;;;;;;;;;4977841;28;20463;-56
2022/10/23 06:21:07;;;;;;;3.60;2.30;;;;;;;;;;4977442;28;20467;-56
2022/10/23 06:23:33;;;;;;;2.70;2.03;;;;;;;;;;5016722;28;20476;-56
2022/10/23 06:25:59;;;;;;;7.53;2.93;;;;;;;;;;4982755;28;20499;-56
2022/10/23 06:28:25;;;;;;;3.20;2.77;;;;;;;;;;4983038;28;20469;-56
2022/10/23 06:30:59;;;;;;;6.23;3.27;;;;;;;;;;4964455;28;20443;-56
2022/10/23 06:33:27;;;;;;;5.83;2.53;;;;;;;;;;4946127;28;20444;-56
2022/10/23 06:35:55;;;;;;;6.80;2.80;;;;;;;;;;4970813;28;20463;-55
2022/10/23 06:38:21;;;;;;;7.03;2.70;;;;;;;;;;4963519;28;22967;-56
2022/10/23 06:40:51;;;;;;;4.17;2.00;;;;;;;;;;4971483;28;20566;-56
2022/10/23 06:43:17;;;;;;;2.40;2.07;;;;;;;;;;4973760;28;21042;-57
2022/10/23 06:45:43;;;;;;;2.90;2.40;;;;;;;;;;4968912;28;20445;-56
2022/10/23 06:48:09;;;;;;;3.47;2.43;;;;;;;;;;4972515;28;20461;-57
2022/10/23 06:50:36;;;;;;;5.10;2.70;;;;;;;;;;4964643;28;20710;-56
2022/10/23 06:53:04;;;;;;;3.60;2.43;;;;;;;;;;4980955;28;20445;-56
2022/10/23 06:55:30;;;;;;;3.50;3.10;;;;;;;;;;4958861;28;20559;-55
2022/10/23 06:57:56;;;;;;;3.67;2.70;;;;;;;;;;4982582;28;20445;-57
2022/10/23 07:00:22;;;;;;;5.20;2.70;;;;;;;;;;4956355;28;20445;-56
2022/10/23 07:02:48;;;;;;;6.00;2.93;;;;;;;;;;4977176;28;20935;-57
2022/10/23 07:05:14;;;;;;;6.23;3.60;;;;;;;;;;4946231;28;20510;-56
2022/10/23 07:07:40;;;;;;;6.70;3.30;;;;;;;;;;4974860;28;20500;-56
2022/10/23 07:10:06;;;;;;;6.80;3.20;;;;;;;;;;4961057;28;20430;-55
2022/10/23 07:12:32;;;;;;;3.43;2.47;;;;;;;;;;4969319;28;20506;-57
2022/10/23 07:14:58;;;;;;;3.40;3.10;;;;;;;;;;4970995;28;20433;-55
2022/10/23 07:17:24;;;;;;;7.03;2.90;;;;;;;;;;4977875;28;20841;-56
2022/10/23 07:19:50;;;;;;;4.03;2.80;;;;;;;;;;4958406;28;20449;-57
2022/10/23 07:22:15;;;;;;;5.27;2.40;;;;;;;;;;5007245;28;20470;-59
2022/10/23 07:24:41;;;;;;;5.23;2.57;;;;;;;;;;4972946;28;20519;-56
2022/10/23 07:27:07;;;;;;;4.07;2.67;;;;;;;;;;4976025;28;20465;-56
2022/10/23 07:29:33;;;;;;;5.17;2.80;;;;;;;;;;4957107;28;20806;-57
2022/10/23 07:32:00;;;;;;;7.07;2.63;;;;;;;;;;4984149;28;20472;-55
2022/10/23 07:34:26;;;;;;;3.60;2.37;;;;;;;;;;4974854;28;20453;-56
2022/10/23 07:36:53;;;;;;;4.23;2.63;;;;;;;;;;4981783;28;20480;-56
2022/10/23 07:39:21;;;;;;;3.30;2.20;;;;;;;;;;4947107;28;20492;-56
2022/10/23 07:41:47;;;;;;;9.20;2.90;;;;;;;;;;4955395;28;21589;-57
2022/10/23 07:44:13;;;;;;;9.53;2.57;;;;;;;;;;4965853;28;20445;-57
2022/10/23 07:46:39;;;;;;;2.33;1.93;;;;;;;;;;4966498;28;20482;-56
2022/10/23 07:49:05;;;;;;;2.90;2.20;;;;;;;;;;4998006;28;20497;-56
2022/10/23 07:51:31;;;;;;;3.20;2.27;;;;;;;;;;4955646;28;20441;-56
2022/10/23 07:53:57;;;;;;;3.10;1.70;;;;;;;;;;4970673;28;20437;-57
2022/10/23 07:56:28;;;;;;;3.53;1.80;;;;;;;;;;4988509;28;21076;-57
2022/10/23 07:58:54;;;;;;;3.93;1.97;;;;;;;;;;5005001;28;20812;-57
2022/10/23 08:01:26;;;;;;;4.50;1.97;;;;;;;;;;4953259;28;20458;-56
2022/10/23 08:03:52;;;;;;;6.17;1.83;;;;;;;;;;4969927;28;20426;-56
2022/10/23 08:06:18;;;;;;;4.83;1.40;;;;;;;;;;4959495;28;20489;-55
2022/10/23 08:08:44;;;;;;;2.53;1.60;;;;;;;;;;4957774;28;20572;-55
2022/10/23 08:11:10;;;;;;;4.80;1.57;;;;;;;;;;4920247;28;20942;-55
2022/10/23 08:13:36;;;;;;;1.93;1.43;;;;;;;;;;4951470;28;20437;-56
2022/10/23 08:16:02;;;;;;;1.83;1.33;;;;;;;;;;4941613;28;20531;-54
2022/10/23 08:18:28;;;;;;;2.13;1.20;;;;;;;;;;4960134;28;20478;-56
2022/10/23 08:20:59;;;;;;;4.00;1.10;;;;;;;;;;4909549;28;20456;-56
2022/10/23 08:23:25;;;;;;;4.97;1.70;;;;;;;;;;4972190;28;20441;-57
2022/10/23 08:25:55;;;;;;;2.80;1.13;;;;;;;;;;4936209;28;20528;-56
2022/10/23 08:28:21;;;;;;;1.93;1.10;;;;;;;;;;4954768;28;20437;-57
2022/10/23 08:30:47;;;;;;;2.50;1.00;;;;;;;;;;4937567;28;20535;-56
2022/10/23 08:33:13;;;;;;;5.30;1.30;;;;;;;;;;4973564;28;20433;-56
2022/10/23 08:35:39;;;;;;;1.47;0.83;;;;;;;;;;4969879;28;20449;-56
2022/10/23 08:38:05;;;;;;;1.53;0.90;;;;;;;;;;4968225;28;20441;-56
2022/10/23 08:40:31;;;;;;;2.03;0.90;;;;;;;;;;4953995;28;20483;-56
2022/10/23 08:43:09;;;;;;;1.60;1.10;;;;;;;;;;4971402;28;20483;-57
2022/10/23 08:45:37;;;;;;;1.87;1.17;;;;;;;;;;4935116;28;20442;-56
2022/10/23 08:48:09;;;;;;;3.03;1.50;;;;;;;;;;5012612;28;21348;-56
2022/10/23 08:50:36;;;;;;;2.47;1.10;;;;;;;;;;4953267;28;20503;-56
2022/10/23 08:53:02;;;;;;;1.43;1.00;;;;;;;;;;4976397;28;20499;-56
2022/10/23 08:55:35;;;;;;;2.00;1.23;;;;;;;;;;4954162;28;20498;-56
2022/10/23 08:58:14;;;;;;;1.30;0.80;;;;;;;;;;4982557;28;20444;-55
2022/10/23 09:00:41;;;;;;;2.60;0.87;;;;;;;;;;4954169;28;20519;-55
2022/10/23 09:03:09;;;;;;;5.77;1.10;;;;;;;;;;4973785;28;20449;-58
2022/10/23 09:05:36;;;;;;;1.70;0.90;;;;;;;;;;4975727;28;20448;-57
2022/10/23 09:08:05;;;;;;;7.53;1.40;;;;;;;;;;4981182;28;20633;-57
2022/10/23 09:10:33;;;;;;;2.07;1.10;;;;;;;;;;4985277;28;20576;-57
2022/10/23 09:13:01;;;;;;;2.70;1.00;;;;;;;;;;4996342;28;20511;-58
2022/10/23 09:15:31;;;;;;;2.57;0.93;;;;;;;;;;4965782;28;20526;-57
2022/10/23 09:17:58;;;;;;;3.23;1.33;;;;;;;;;;5008109;28;20514;-57
2022/10/23 09:20:25;;;;;;;3.40;2.83;;;;;;;;;;4944700;28;20437;-56
2022/10/23 09:22:55;;;;;;;5.13;3.17;;;;;;;;;;4978103;28;20529;-55
2022/10/23 09:25:22;;;;;;;7.43;3.43;;;;;;;;;;4950437;28;20441;-57
2022/10/23 09:27:49;;;;;;;3.13;2.60;;;;;;;;;;4983465;28;20485;-58
2022/10/23 09:30:25;;;;;;;3.80;3.50;;;;;;;;;;4959411;28;20444;-55
2022/10/23 09:32:51;;;;;;;3.93;3.53;;;;;;;;;;4983275;28;20445;-57
2022/10/23 09:35:23;;;;;;;2.70;2.23;;;;;;;;;;4992876;28;20440;-57
2022/10/23 09:37:52;;;;;;;2.80;1.83;;;;;;;;;;4984673;28;20453;-58
2022/10/23 09:40:21;;;;;;;3.43;1.83;;;;;;;;;;4937801;28;20479;-57
2022/10/23 09:42:51;;;;;;;1.87;1.67;;;;;;;;;;4975617;28;20468;-57
2022/10/23 09:45:21;;;;;;;4.00;1.40;;;;;;;;;;4979837;28;20517;-56
2022/10/23 09:47:47;;;;;;;2.40;0.90;;;;;;;;;;4937833;28;20487;-57
2022/10/23 09:50:18;;;;;;;1.60;1.00;;;;;;;;;;4972354;28;21013;-57
2022/10/23 09:52:44;;;;;;;1.97;1.03;;;;;;;;;;4981688;28;20443;-57
2022/10/23 09:55:23;;;;;;;2.13;1.10;;;;;;;;;;4985213;28;20807;-57
2022/10/23 09:57:50;;;;;;;3.17;1.40;;;;;;;;;;4953108;28;20471;-54
2022/10/23 10:00:25;;;;;;;4.37;1.37;;;;;;;;;;4971613;28;20453;-57
2022/10/23 10:02:58;;;;;;;1.80;1.30;;;;;;;;;;4954375;28;21340;-57
2022/10/23 10:05:34;;;;;;;2.43;1.27;;;;;;;;;;4957969;28;20441;-57
2022/10/23 10:08:26;;;;;;;2.47;1.20;;;;;;;;;;4981752;28;20514;-58
2022/10/23 10:10:55;;;;;;;2.40;1.20;;;;;;;;;;4947699;28;20445;-57
2022/10/23 10:13:40;;;;;;;4.20;1.27;;;;;;;;;;4969943;28;22566;-55
2022/10/23 10:16:10;;;;;;;3.93;1.17;;;;;;;;;;4978840;28;20499;-57
2022/10/23 10:18:59;;;;;;;2.83;1.30;;;;;;;;;;4981050;28;20446;-56
2022/10/23 10:21:29;;;;;;;1.90;1.00;;;;;;;;;;4944233;28;20434;-56
2022/10/23 10:24:02;;;;;;;3.20;1.13;;;;;;;;;;5004081;28;20541;-55
2022/10/23 10:27:07;;;;;;;3.57;1.30;;;;;;;;;;4982256;28;20645;-57
2022/10/23 10:29:48;;;;;;;1.50;0.80;;;;;;;;;;4956174;28;20558;-59
2022/10/23 10:32:33;;;;;;;3.40;1.20;;;;;;;;;;4976428;28;20940;-60
2022/10/23 10:34:59;;;;;;;2.50;1.13;;;;;;;;;;4948291;28;20459;-59
2022/10/23 10:37:34;;;;;;;2.63;1.13;;;;;;;;;;4979270;28;20432;-60
2022/10/23 10:40:17;;;;;;;1.83;1.10;;;;;;;;;;4954993;28;20465;-60
2022/10/23 10:42:43;;;;;;;2.23;1.20;;;;;;;;;;5010969;28;20453;-59
2022/10/23 10:45:16;;;;;;;1.90;1.13;;;;;;;;;;4956529;28;20876;-60
2022/10/23 10:47:42;;;;;;;3.27;1.10;;;;;;;;;;4968888;28;20569;-60
2022/10/23 10:50:15;;;;;;;3.33;1.30;;;;;;;;;;4947339;28;21889;-60
2022/10/23 10:52:47;;;;;;;2.20;0.93;;;;;;;;;;5009236;28;20442;-58
2022/10/23 10:55:19;;;;;;;1.80;1.10;;;;;;;;;;4977056;28;20471;-59
2022/10/23 10:57:47;;;;;;;6.13;1.20;;;;;;;;;;4980554;28;20449;-59
2022/10/23 11:00:17;;;;;;;2.40;1.10;;;;;;;;;;4956734;28;20449;-59
2022/10/23 11:02:43;;;;;;;1.70;1.00;;;;;;;;;;4984665;28;20459;-60
2022/10/23 11:05:29;;;;;;;1.60;0.90;;;;;;;;;;4975047;28;20437;-59
2022/10/23 11:08:04;;;;;;;2.93;1.47;;;;;;;;;;4983789;28;21170;-60
2022/10/23 11:10:30;;;;;;;2.77;1.40;;;;;;;;;;4961855;28;20605;-59
2022/10/23 11:12:56;;;;;;;3.50;1.30;;;;;;;;;;4980518;28;20971;-60
2022/10/23 11:15:28;;;;;;;1.90;1.07;;;;;;;;;;4954341;28;20854;-59
2022/10/23 11:17:56;;;;;;;2.23;0.90;;;;;;;;;;4975114;28;20437;-60
2022/10/23 11:20:41;;;;;;;3.80;1.17;;;;;;;;;;4984670;28;20527;-61
2022/10/23 11:23:07;;;;;;;3.50;0.90;;;;;;;;;;4984900;28;20522;-60
2022/10/23 11:25:42;;;;;;;2.17;1.20;;;;;;;;;;4957061;28;20479;-60
2022/10/23 11:28:27;;;;;;;3.40;1.33;;;;;;;;;;4976439;28;20475;-59
2022/10/23 11:31:12;;;;;;;2.33;1.10;;;;;;;;;;4969867;28;20434;-59
2022/10/23 11:33:57;;;;;;;1.77;1.00;;;;;;;;;;4978152;28;20445;-60
2022/10/23 11:36:39;;;;;;;1.90;1.00;;;;;;;;;;4952796;28;20974;-58
2022/10/23 11:39:06;;;;;;;3.70;1.10;;;;;;;;;;4972787;28;20468;-60
2022/10/23 11:41:33;;;;;;;3.43;1.10;;;;;;;;;;4967086;28;20946;-60
2022/10/23 11:44:02;;;;;;;5.43;0.97;;;;;;;;;;4996239;28;20456;-60
2022/10/23 11:46:29;;;;;;;2.33;1.20;;;;;;;;;;4959870;28;20506;-58
2022/10/23 11:48:55;;;;;;;3.50;1.20;;;;;;;;;;4973341;28;20448;-57
2022/10/23 11:51:25;;;;;;;2.10;1.30;;;;;;;;;;4975006;28;20487;-59
2022/10/23 11:53:51;;;;;;;3.03;2.00;;;;;;;;;;4955135;28;20505;-59
2022/10/23 11:56:20;;;;;;;3.80;1.40;;;;;;;;;;4930974;28;21704;-60
2022/10/23 11:58:46;;;;;;;3.30;1.53;;;;;;;;;;4980769;28;20436;-58
2022/10/23 12:01:23;;;;;;;1.83;1.10;;;;;;;;;;4955615;28;20440;-59
2022/10/23 12:03:50;;;;;;;2.80;1.13;;;;;;;;;;4970233;28;20440;-60
2022/10/23 12:06:21;;;;;;;2.13;1.30;;;;;;;;;;4945681;28;20466;-59
2022/10/23 12:08:49;;;;;;;2.50;1.17;;;;;;;;;;4971783;28;20446;-60
2022/10/23 12:11:29;;;;;;;4.23;1.40;;;;;;;;;;4950552;28;20443;-62
2022/10/23 12:13:55;;;;;;;3.57;2.63;;;;;;;;;;4975877;28;20483;-62
2022/10/23 12:16:20;;;;;;;4.83;2.63;;;;;;;;;;4953788;28;20527;-60
2022/10/23 12:18:46;;;;;;;2.43;1.70;;;;;;;;;;5005768;28;20521;-60
2022/10/23 12:21:15;;;;;;;2.00;1.20;;;;;;;;;;4936964;28;20453;-60
2022/10/23 12:23:49;;;;;;;3.23;1.50;;;;;;;;;;4979281;28;20447;-59
2022/10/23 12:26:15;;;;;;;4.67;1.73;;;;;;;;;;4951132;28;24672;-59
2022/10/23 12:28:57;;;;;;;3.17;2.50;;;;;;;;;;4976349;28;20531;-59
2022/10/23 12:31:29;;;;;;;2.00;1.20;;;;;;;;;;4961753;28;20868;-59
2022/10/23 12:34:04;;;;;;;3.30;1.20;;;;;;;;;;4970413;28;20446;-59
2022/10/23 12:36:43;;;;;;;3.20;1.83;;;;;;;;;;4959875;28;22933;-59
2022/10/23 12:39:28;;;;;;;2.10;1.23;;;;;;;;;;4970178;28;20453;-63
2022/10/23 12:41:54;;;;;;;1.83;1.07;;;;;;;;;;4956919;28;20456;-62
2022/10/23 12:44:20;;;;;;;2.70;1.10;;;;;;;;;;4982883;28;20438;-62
2022/10/23 12:46:46;;;;;;;2.07;1.10;;;;;;;;;;4978406;28;20588;-59
2022/10/23 12:49:17;;;;;;;2.90;1.17;;;;;;;;;;4982704;28;20463;-60
2022/10/23 12:51:44;;;;;;;2.23;1.23;;;;;;;;;;4977159;28;20545;-60
2022/10/23 12:54:17;;;;;;;2.43;1.37;;;;;;;;;;4976202;28;20529;-60
2022/10/23 12:56:50;;;;;;;2.40;1.10;;;;;;;;;;4952280;28;20457;-58
2022/10/23 12:59:17;;;;;;;3.00;1.20;;;;;;;;;;4951269;28;20979;-59
2022/10/23 13:01:43;;;;;;;1.97;1.10;;;;;;;;;;4971098;28;20488;-58
2022/10/23 13:04:21;;;;;;;3.13;1.40;;;;;;;;;;5001321;28;20438;-63
2022/10/23 13:06:48;;;;;;;5.17;1.13;;;;;;;;;;4957739;28;20516;-60
2022/10/23 13:09:22;;;;;;;4.50;1.20;;;;;;;;;;4965047;28;20440;-61
2022/10/23 13:11:49;;;;;;;3.00;1.13;;;;;;;;;;4963740;28;20516;-63
2022/10/23 13:14:23;;;;;;;1.90;1.20;;;;;;;;;;4968283;28;20437;-61
2022/10/23 13:16:57;;;;;;;3.60;1.10;;;;;;;;;;4968158;28;20456;-60
2022/10/23 13:19:25;;;;;;;2.93;1.00;;;;;;;;;;4976364;28;20472;-61
2022/10/23 13:21:51;;;;;;;2.10;1.00;;;;;;;;;;4957805;28;20438;-60
2022/10/23 13:24:21;;;;;;;2.53;0.90;;;;;;;;;;4981453;28;20441;-61
2022/10/23 13:26:47;;;;;;;3.23;1.10;;;;;;;;;;5002839;28;20706;-61
2022/10/23 13:29:23;;;;;;;3.17;0.90;;;;;;;;;;4973992;28;20446;-60
2022/10/23 13:31:49;;;;;;;2.40;1.17;;;;;;;;;;4970386;28;20441;-59
2022/10/23 13:34:18;;;;;;;2.00;1.10;;;;;;;;;;4976757;28;20456;-60
2022/10/23 13:36:54;;;;;;;6.13;1.67;;;;;;;;;;4979138;28;20433;-60
2022/10/23 13:39:29;;;;;;;3.50;2.13;;;;;;;;;;4982634;28;20440;-59
2022/10/23 13:41:54;;;;;;;3.30;1.73;;;;;;;;;;4951100;28;20461;-57
2022/10/23 13:44:21;;;;;;;2.83;1.10;;;;;;;;;;4977465;28;20445;-60
2022/10/23 13:46:47;;;;;;;5.03;1.50;;;;;;;;;;4955053;28;20520;-59
2022/10/23 13:49:13;;;;;;;6.60;1.70;;;;;;;;;;4951838;28;20504;-60
2022/10/23 13:51:48;;;;;;;2.83;1.80;;;;;;;;;;4968474;28;21192;-58
2022/10/23 13:54:15;;;;;;;3.30;2.20;;;;;;;;;;4959935;28;22968;-61
2022/10/23 13:56:41;;;;;;;13.23;3.03;;;;;;;;;;4980397;28;20433;-61
2022/10/23 13:59:08;;;;;;;10.57;3.10;;;;;;;;;;4959917;28;20438;-60
2022/10/23 14:01:34;;;;;;;6.63;2.73;;;;;;;;;;4978870;28;20482;-62
2022/10/23 14:04:05;;;;;;;3.80;3.00;;;;;;;;;;4955559;28;21125;-60
2022/10/23 14:06:32;;;;;;;6.63;2.47;;;;;;;;;;4949015;28;21143;-61
2022/10/23 14:08:58;;;;;;;4.20;2.53;;;;;;;;;;4978490;28;21190;-63
2022/10/23 14:11:24;;;;;;;7.23;3.37;;;;;;;;;;4951775;28;20470;-61
2022/10/23 14:13:51;;;;;;;5.70;2.17;;;;;;;;;;4974943;28;20438;-60
2022/10/23 14:16:17;;;;;;;5.50;2.10;;;;;;;;;;4926132;28;20501;-59
2022/10/23 14:18:43;;;;;;;5.83;2.47;;;;;;;;;;4977916;28;20534;-58
2022/10/23 14:21:11;;;;;;;3.90;1.70;;;;;;;;;;4951991;28;20459;-56
2022/10/23 14:23:37;;;;;;;5.57;2.30;;;;;;;;;;4975081;28;20843;-61
2022/10/23 14:26:09;;;;;;;2.73;1.90;;;;;;;;;;4986537;28;20893;-61
2022/10/23 14:28:35;;;;;;;9.57;1.23;;;;;;;;;;4949642;28;20636;-60
2022/10/23 14:31:27;;;;;;;3.93;2.00;;;;;;;;;;4971081;28;20438;-62
2022/10/23 14:33:54;;;;;;;2.53;1.73;;;;;;;;;;4958979;28;20446;-60
2022/10/23 14:39:33;;;;;;;3.53;2.40;;;;;;;;;;4939186;28;20826;-60
2022/10/23 14:41:59;;;;;;;5.60;2.17;;;;;;;;;;4979724;28;20536;-59
2022/10/23 14:44:25;;;;;;;13.50;2.50;;;;;;;;;;4964393;28;20452;-60
2022/10/23 14:46:51;;;;;;;6.77;2.00;;;;;;;;;;4974308;28;20508;-60
2022/10/23 14:49:17;;;;;;;3.67;1.80;;;;;;;;;;4952072;28;20452;-60
2022/10/23 14:51:43;;;;;;;5.10;2.40;;;;;;;;;;4978225;28;20450;-60
2022/10/23 14:54:09;;;;;;;7.87;3.00;;;;;;;;;;4958277;28;20447;-60
2022/10/23 14:56:36;;;;;;;10.53;4.80;;;;;;;;;;4979717;28;20453;-61